sensor_id;sensor_type;location;lat;lon;timestamp;P1;durP1;ratioP1;P2;durP2;ratioP2
47749;SDS011;49810;48.160;10.812;2023-03-21T00:00:41;14.93;;;9.57;;
47749;SDS011;49810;48.160;10.812;2023-03-21T00:03:09;13.15;;;9.00;;
47749;SDS011;49810;48.160;10.812;2023-03-21T00:05:38;14.77;;;9.07;;
47749;SDS011;49810;48.160;10.812;2023-03-21T00:08:07;13.70;;;8.77;;
47749;SDS011;49810;48.160;10.812;2023-03-21T00:10:35;13.00;;;8.85;;
47749;SDS011;49810;48.160;10.812;2023-03-21T00:13:24;12.63;;;8.63;;
47749;SDS011;49810;48.160;10.812;2023-03-21T00:15:55;13.90;;;8.75;;
47749;SDS011;49810;48.160;10.812;2023-03-21T00:18:33;12.93;;;9.45;;
47749;SDS011;49810;48.160;10.812;2023-03-21T00:21:07;11.20;;;8.60;;
47749;SDS011;49810;48.160;10.812;2023-03-21T00:23:56;11.77;;;8.50;;
47749;SDS011;49810;48.160;10.812;2023-03-21T00:26:24;11.25;;;8.50;;
47749;SDS011;49810;48.160;10.812;2023-03-21T00:28:53;12.52;;;9.45;;
47749;SDS011;49810;48.160;10.812;2023-03-21T00:31:22;12.80;;;8.85;;
47749;SDS011;49810;48.160;10.812;2023-03-21T00:33:50;13.02;;;9.18;;
47749;SDS011;49810;48.160;10.812;2023-03-21T00:36:17;14.43;;;8.40;;
47749;SDS011;49810;48.160;10.812;2023-03-21T00:38:47;18.65;;;9.38;;
47749;SDS011;49810;48.160;10.812;2023-03-21T00:41:14;14.18;;;9.55;;
47749;SDS011;49810;48.160;10.812;2023-03-21T00:44:00;13.00;;;8.98;;
47749;SDS011;49810;48.160;10.812;2023-03-21T00:46:30;14.45;;;9.27;;
47749;SDS011;49810;48.160;10.812;2023-03-21T00:49:14;14.73;;;9.85;;
47749;SDS011;49810;48.160;10.812;2023-03-21T00:51:42;12.43;;;8.40;;
47749;SDS011;49810;48.160;10.812;2023-03-21T00:54:10;11.50;;;8.35;;
47749;SDS011;49810;48.160;10.812;2023-03-21T00:56:39;16.05;;;9.93;;
47749;SDS011;49810;48.160;10.812;2023-03-21T00:59:08;14.05;;;8.63;;
47749;SDS011;49810;48.160;10.812;2023-03-21T01:01:37;13.55;;;9.75;;
47749;SDS011;49810;48.160;10.812;2023-03-21T01:04:06;14.23;;;9.30;;
47749;SDS011;49810;48.160;10.812;2023-03-21T01:06:39;14.65;;;9.23;;
47749;SDS011;49810;48.160;10.812;2023-03-21T01:09:09;12.73;;;9.18;;
47749;SDS011;49810;48.160;10.812;2023-03-21T01:11:38;12.63;;;9.02;;
47749;SDS011;49810;48.160;10.812;2023-03-21T01:14:09;15.10;;;8.98;;
47749;SDS011;49810;48.160;10.812;2023-03-21T01:16:49;14.85;;;9.45;;
47749;SDS011;49810;48.160;10.812;2023-03-21T01:19:18;16.85;;;9.50;;
47749;SDS011;49810;48.160;10.812;2023-03-21T01:21:54;12.75;;;8.93;;
47749;SDS011;49810;48.160;10.812;2023-03-21T01:24:23;12.50;;;8.80;;
47749;SDS011;49810;48.160;10.812;2023-03-21T01:26:51;15.52;;;9.05;;
47749;SDS011;49810;48.160;10.812;2023-03-21T01:29:18;13.65;;;8.07;;
47749;SDS011;49810;48.160;10.812;2023-03-21T01:31:46;12.80;;;8.27;;
47749;SDS011;49810;48.160;10.812;2023-03-21T01:34:16;12.63;;;9.05;;
47749;SDS011;49810;48.160;10.812;2023-03-21T01:36:44;13.38;;;9.27;;
47749;SDS011;49810;48.160;10.812;2023-03-21T01:39:16;16.00;;;9.90;;
47749;SDS011;49810;48.160;10.812;2023-03-21T01:41:46;12.57;;;9.05;;
47749;SDS011;49810;48.160;10.812;2023-03-21T01:44:23;13.18;;;9.82;;
47749;SDS011;49810;48.160;10.812;2023-03-21T01:46:51;15.70;;;10.02;;
47749;SDS011;49810;48.160;10.812;2023-03-21T01:49:46;16.08;;;10.15;;
47749;SDS011;49810;48.160;10.812;2023-03-21T01:52:30;13.32;;;9.70;;
47749;SDS011;49810;48.160;10.812;2023-03-21T01:55:13;15.38;;;10.73;;
47749;SDS011;49810;48.160;10.812;2023-03-21T01:57:49;13.55;;;9.43;;
47749;SDS011;49810;48.160;10.812;2023-03-21T02:00:37;13.95;;;10.20;;
47749;SDS011;49810;48.160;10.812;2023-03-21T02:03:20;13.95;;;9.77;;
47749;SDS011;49810;48.160;10.812;2023-03-21T02:06:13;13.77;;;9.13;;
47749;SDS011;49810;48.160;10.812;2023-03-21T02:08:46;10.43;;;7.93;;
47749;SDS011;49810;48.160;10.812;2023-03-21T02:11:14;11.60;;;8.52;;
47749;SDS011;49810;48.160;10.812;2023-03-21T02:13:43;12.05;;;8.35;;
47749;SDS011;49810;48.160;10.812;2023-03-21T02:16:15;11.75;;;8.15;;
47749;SDS011;49810;48.160;10.812;2023-03-21T02:18:46;13.32;;;8.52;;
47749;SDS011;49810;48.160;10.812;2023-03-21T02:24:17;17.92;;;9.55;;
47749;SDS011;49810;48.160;10.812;2023-03-21T02:29:57;17.65;;;10.15;;
47749;SDS011;49810;48.160;10.812;2023-03-21T02:32:33;18.33;;;10.93;;
47749;SDS011;49810;48.160;10.812;2023-03-21T02:35:13;17.15;;;11.48;;
47749;SDS011;49810;48.160;10.812;2023-03-21T02:37:48;15.80;;;9.95;;
47749;SDS011;49810;48.160;10.812;2023-03-21T02:40:29;11.23;;;8.23;;
47749;SDS011;49810;48.160;10.812;2023-03-21T02:43:01;12.10;;;8.15;;
47749;SDS011;49810;48.160;10.812;2023-03-21T02:45:44;13.13;;;8.38;;
47749;SDS011;49810;48.160;10.812;2023-03-21T02:48:15;15.13;;;8.07;;
47749;SDS011;49810;48.160;10.812;2023-03-21T02:50:57;11.35;;;8.10;;
47749;SDS011;49810;48.160;10.812;2023-03-21T02:53:29;15.63;;;7.90;;
47749;SDS011;49810;48.160;10.812;2023-03-21T02:55:59;12.05;;;7.90;;
47749;SDS011;49810;48.160;10.812;2023-03-21T02:58:31;10.63;;;7.55;;
47749;SDS011;49810;48.160;10.812;2023-03-21T03:01:00;10.98;;;8.00;;
47749;SDS011;49810;48.160;10.812;2023-03-21T03:03:35;12.85;;;8.68;;
47749;SDS011;49810;48.160;10.812;2023-03-21T03:06:07;13.30;;;8.80;;
47749;SDS011;49810;48.160;10.812;2023-03-21T03:08:43;15.23;;;7.68;;
47749;SDS011;49810;48.160;10.812;2023-03-21T03:11:28;11.45;;;7.95;;
47749;SDS011;49810;48.160;10.812;2023-03-21T03:14:01;10.90;;;8.32;;
47749;SDS011;49810;48.160;10.812;2023-03-21T03:16:54;12.40;;;7.80;;
47749;SDS011;49810;48.160;10.812;2023-03-21T03:19:25;12.77;;;8.02;;
47749;SDS011;49810;48.160;10.812;2023-03-21T03:21:58;11.88;;;8.02;;
47749;SDS011;49810;48.160;10.812;2023-03-21T03:24:30;11.35;;;7.68;;
47749;SDS011;49810;48.160;10.812;2023-03-21T03:26:58;10.88;;;8.15;;
47749;SDS011;49810;48.160;10.812;2023-03-21T03:29:28;12.25;;;8.63;;
47749;SDS011;49810;48.160;10.812;2023-03-21T03:31:59;10.35;;;7.40;;
47749;SDS011;49810;48.160;10.812;2023-03-21T03:34:31;13.13;;;7.55;;
47749;SDS011;49810;48.160;10.812;2023-03-21T03:37:01;13.20;;;7.93;;
47749;SDS011;49810;48.160;10.812;2023-03-21T03:39:36;11.73;;;7.95;;
47749;SDS011;49810;48.160;10.812;2023-03-21T03:42:05;11.77;;;8.57;;
47749;SDS011;49810;48.160;10.812;2023-03-21T03:44:58;12.00;;;7.95;;
47749;SDS011;49810;48.160;10.812;2023-03-21T03:47:26;11.68;;;8.70;;
47749;SDS011;49810;48.160;10.812;2023-03-21T03:50:05;12.23;;;8.15;;
47749;SDS011;49810;48.160;10.812;2023-03-21T03:52:36;13.60;;;7.95;;
47749;SDS011;49810;48.160;10.812;2023-03-21T03:55:22;12.55;;;8.32;;
47749;SDS011;49810;48.160;10.812;2023-03-21T03:57:56;13.45;;;8.63;;
47749;SDS011;49810;48.160;10.812;2023-03-21T04:00:23;11.73;;;7.88;;
47749;SDS011;49810;48.160;10.812;2023-03-21T04:02:53;13.98;;;8.25;;
47749;SDS011;49810;48.160;10.812;2023-03-21T04:05:22;11.32;;;7.97;;
47749;SDS011;49810;48.160;10.812;2023-03-21T04:07:51;13.27;;;8.05;;
47749;SDS011;49810;48.160;10.812;2023-03-21T04:10:29;11.65;;;8.35;;
47749;SDS011;49810;48.160;10.812;2023-03-21T04:12:59;14.32;;;9.43;;
47749;SDS011;49810;48.160;10.812;2023-03-21T04:15:42;11.90;;;8.60;;
47749;SDS011;49810;48.160;10.812;2023-03-21T04:18:13;12.90;;;9.13;;
47749;SDS011;49810;48.160;10.812;2023-03-21T04:20:42;13.65;;;9.73;;
47749;SDS011;49810;48.160;10.812;2023-03-21T04:23:11;12.20;;;9.15;;
47749;SDS011;49810;48.160;10.812;2023-03-21T04:25:45;13.20;;;9.07;;
47749;SDS011;49810;48.160;10.812;2023-03-21T04:28:22;12.90;;;8.90;;
47749;SDS011;49810;48.160;10.812;2023-03-21T04:31:10;12.43;;;9.55;;
47749;SDS011;49810;48.160;10.812;2023-03-21T04:33:53;13.27;;;8.95;;
47749;SDS011;49810;48.160;10.812;2023-03-21T04:36:21;14.88;;;9.15;;
47749;SDS011;49810;48.160;10.812;2023-03-21T04:38:56;13.85;;;9.05;;
47749;SDS011;49810;48.160;10.812;2023-03-21T04:41:28;11.57;;;8.57;;
47749;SDS011;49810;48.160;10.812;2023-03-21T04:43:56;13.57;;;9.02;;
47749;SDS011;49810;48.160;10.812;2023-03-21T04:46:24;12.50;;;9.30;;
47749;SDS011;49810;48.160;10.812;2023-03-21T04:48:53;12.95;;;8.75;;
47749;SDS011;49810;48.160;10.812;2023-03-21T04:51:20;13.90;;;8.75;;
47749;SDS011;49810;48.160;10.812;2023-03-21T04:53:48;13.32;;;9.00;;
47749;SDS011;49810;48.160;10.812;2023-03-21T04:56:18;13.20;;;8.90;;
47749;SDS011;49810;48.160;10.812;2023-03-21T04:58:47;13.38;;;8.82;;
47749;SDS011;49810;48.160;10.812;2023-03-21T05:01:14;15.15;;;10.55;;
47749;SDS011;49810;48.160;10.812;2023-03-21T05:03:46;15.60;;;10.32;;
47749;SDS011;49810;48.160;10.812;2023-03-21T05:06:14;11.15;;;8.48;;
47749;SDS011;49810;48.160;10.812;2023-03-21T05:08:42;12.95;;;8.18;;
47749;SDS011;49810;48.160;10.812;2023-03-21T05:11:11;11.73;;;8.25;;
47749;SDS011;49810;48.160;10.812;2023-03-21T05:13:38;13.38;;;8.50;;
47749;SDS011;49810;48.160;10.812;2023-03-21T05:16:08;11.88;;;8.35;;
47749;SDS011;49810;48.160;10.812;2023-03-21T05:18:36;12.63;;;8.27;;
47749;SDS011;49810;48.160;10.812;2023-03-21T05:21:13;11.90;;;8.82;;
47749;SDS011;49810;48.160;10.812;2023-03-21T05:23:46;13.88;;;8.70;;
47749;SDS011;49810;48.160;10.812;2023-03-21T05:26:20;16.23;;;9.05;;
47749;SDS011;49810;48.160;10.812;2023-03-21T05:28:56;12.20;;;9.38;;
47749;SDS011;49810;48.160;10.812;2023-03-21T05:31:25;15.48;;;10.02;;
47749;SDS011;49810;48.160;10.812;2023-03-21T05:34:03;15.32;;;10.65;;
47749;SDS011;49810;48.160;10.812;2023-03-21T05:36:32;11.98;;;8.70;;
47749;SDS011;49810;48.160;10.812;2023-03-21T05:39:04;12.35;;;8.32;;
47749;SDS011;49810;48.160;10.812;2023-03-21T05:41:36;12.80;;;9.18;;
47749;SDS011;49810;48.160;10.812;2023-03-21T05:44:07;23.10;;;16.33;;
47749;SDS011;49810;48.160;10.812;2023-03-21T05:46:37;28.52;;;17.17;;
47749;SDS011;49810;48.160;10.812;2023-03-21T05:49:05;18.40;;;9.43;;
47749;SDS011;49810;48.160;10.812;2023-03-21T05:51:34;15.52;;;9.63;;
47749;SDS011;49810;48.160;10.812;2023-03-21T05:54:01;23.60;;;10.98;;
47749;SDS011;49810;48.160;10.812;2023-03-21T05:56:29;11.65;;;8.95;;
47749;SDS011;49810;48.160;10.812;2023-03-21T05:59:02;11.80;;;8.32;;
47749;SDS011;49810;48.160;10.812;2023-03-21T06:01:34;17.92;;;8.85;;
47749;SDS011;49810;48.160;10.812;2023-03-21T06:04:11;12.63;;;8.50;;
47749;SDS011;49810;48.160;10.812;2023-03-21T06:06:40;13.90;;;8.93;;
47749;SDS011;49810;48.160;10.812;2023-03-21T06:09:08;14.80;;;9.45;;
47749;SDS011;49810;48.160;10.812;2023-03-21T06:11:39;13.50;;;9.07;;
47749;SDS011;49810;48.160;10.812;2023-03-21T06:14:16;16.33;;;9.45;;
47749;SDS011;49810;48.160;10.812;2023-03-21T06:16:52;13.68;;;9.68;;
47749;SDS011;49810;48.160;10.812;2023-03-21T06:19:21;15.43;;;9.23;;
47749;SDS011;49810;48.160;10.812;2023-03-21T06:21:59;13.00;;;9.60;;
47749;SDS011;49810;48.160;10.812;2023-03-21T06:24:30;13.63;;;9.63;;
47749;SDS011;49810;48.160;10.812;2023-03-21T06:26:58;14.68;;;9.40;;
47749;SDS011;49810;48.160;10.812;2023-03-21T06:29:38;21.80;;;9.93;;
47749;SDS011;49810;48.160;10.812;2023-03-21T06:32:06;13.65;;;8.73;;
47749;SDS011;49810;48.160;10.812;2023-03-21T06:34:36;14.95;;;9.30;;
47749;SDS011;49810;48.160;10.812;2023-03-21T06:37:05;15.77;;;9.00;;
47749;SDS011;49810;48.160;10.812;2023-03-21T06:39:35;15.27;;;8.32;;
47749;SDS011;49810;48.160;10.812;2023-03-21T06:42:04;11.48;;;8.00;;
47749;SDS011;49810;48.160;10.812;2023-03-21T06:44:32;12.55;;;9.20;;
47749;SDS011;49810;48.160;10.812;2023-03-21T06:47:04;12.45;;;8.68;;
47749;SDS011;49810;48.160;10.812;2023-03-21T06:49:36;15.10;;;8.10;;
47749;SDS011;49810;48.160;10.812;2023-03-21T06:52:08;15.38;;;8.13;;
47749;SDS011;49810;48.160;10.812;2023-03-21T06:54:36;17.58;;;8.40;;
47749;SDS011;49810;48.160;10.812;2023-03-21T06:57:13;12.38;;;8.05;;
47749;SDS011;49810;48.160;10.812;2023-03-21T06:59:43;17.00;;;8.82;;
47749;SDS011;49810;48.160;10.812;2023-03-21T07:02:19;12.23;;;8.45;;
47749;SDS011;49810;48.160;10.812;2023-03-21T07:04:58;12.00;;;8.40;;
47749;SDS011;49810;48.160;10.812;2023-03-21T07:07:28;15.07;;;9.00;;
47749;SDS011;49810;48.160;10.812;2023-03-21T07:09:56;14.52;;;9.35;;
47749;SDS011;49810;48.160;10.812;2023-03-21T07:12:26;13.70;;;8.88;;
47749;SDS011;49810;48.160;10.812;2023-03-21T07:15:12;16.42;;;9.25;;
47749;SDS011;49810;48.160;10.812;2023-03-21T07:17:41;14.23;;;8.30;;
47749;SDS011;49810;48.160;10.812;2023-03-21T07:20:11;16.45;;;9.02;;
47749;SDS011;49810;48.160;10.812;2023-03-21T07:22:39;13.18;;;8.77;;
47749;SDS011;49810;48.160;10.812;2023-03-21T07:25:08;15.18;;;8.80;;
47749;SDS011;49810;48.160;10.812;2023-03-21T07:27:39;13.30;;;8.90;;
47749;SDS011;49810;48.160;10.812;2023-03-21T07:30:08;13.52;;;8.05;;
47749;SDS011;49810;48.160;10.812;2023-03-21T07:32:36;12.60;;;7.70;;
47749;SDS011;49810;48.160;10.812;2023-03-21T07:35:04;12.90;;;7.60;;
47749;SDS011;49810;48.160;10.812;2023-03-21T07:37:34;11.05;;;7.43;;
47749;SDS011;49810;48.160;10.812;2023-03-21T07:40:05;10.07;;;6.68;;
47749;SDS011;49810;48.160;10.812;2023-03-21T07:42:37;9.95;;;6.88;;
47749;SDS011;49810;48.160;10.812;2023-03-21T07:45:06;10.52;;;6.95;;
47749;SDS011;49810;48.160;10.812;2023-03-21T07:47:36;11.70;;;8.13;;
47749;SDS011;49810;48.160;10.812;2023-03-21T07:50:04;11.93;;;7.63;;
47749;SDS011;49810;48.160;10.812;2023-03-21T07:52:38;12.55;;;6.95;;
47749;SDS011;49810;48.160;10.812;2023-03-21T07:55:06;12.38;;;7.43;;
47749;SDS011;49810;48.160;10.812;2023-03-21T07:57:34;11.00;;;6.80;;
47749;SDS011;49810;48.160;10.812;2023-03-21T08:00:02;8.43;;;6.70;;
47749;SDS011;49810;48.160;10.812;2023-03-21T08:02:38;9.43;;;6.68;;
47749;SDS011;49810;48.160;10.812;2023-03-21T08:05:06;9.00;;;6.45;;
47749;SDS011;49810;48.160;10.812;2023-03-21T08:07:38;9.75;;;7.15;;
47749;SDS011;49810;48.160;10.812;2023-03-21T08:10:06;11.60;;;7.18;;
47749;SDS011;49810;48.160;10.812;2023-03-21T08:12:36;12.18;;;6.55;;
47749;SDS011;49810;48.160;10.812;2023-03-21T08:15:04;10.23;;;6.47;;
47749;SDS011;49810;48.160;10.812;2023-03-21T08:17:33;12.38;;;6.55;;
47749;SDS011;49810;48.160;10.812;2023-03-21T08:20:03;10.20;;;7.30;;
47749;SDS011;49810;48.160;10.812;2023-03-21T08:22:34;11.85;;;7.38;;
47749;SDS011;49810;48.160;10.812;2023-03-21T08:25:04;11.50;;;6.97;;
47749;SDS011;49810;48.160;10.812;2023-03-21T08:27:33;13.63;;;6.70;;
47749;SDS011;49810;48.160;10.812;2023-03-21T08:30:01;10.60;;;6.60;;
47749;SDS011;49810;48.160;10.812;2023-03-21T08:32:29;9.02;;;5.60;;
47749;SDS011;49810;48.160;10.812;2023-03-21T08:34:58;8.05;;;6.20;;
47749;SDS011;49810;48.160;10.812;2023-03-21T08:37:26;10.70;;;5.75;;
47749;SDS011;49810;48.160;10.812;2023-03-21T08:39:54;9.00;;;5.90;;
47749;SDS011;49810;48.160;10.812;2023-03-21T08:42:23;11.05;;;6.15;;
47749;SDS011;49810;48.160;10.812;2023-03-21T08:44:51;10.57;;;5.60;;
47749;SDS011;49810;48.160;10.812;2023-03-21T08:47:19;7.88;;;5.32;;
47749;SDS011;49810;48.160;10.812;2023-03-21T08:49:47;9.10;;;5.18;;
47749;SDS011;49810;48.160;10.812;2023-03-21T08:52:15;6.68;;;4.88;;
47749;SDS011;49810;48.160;10.812;2023-03-21T08:54:43;6.93;;;4.78;;
47749;SDS011;49810;48.160;10.812;2023-03-21T08:57:11;9.15;;;5.00;;
47749;SDS011;49810;48.160;10.812;2023-03-21T08:59:40;7.90;;;4.22;;
47749;SDS011;49810;48.160;10.812;2023-03-21T09:02:08;8.43;;;4.07;;
47749;SDS011;49810;48.160;10.812;2023-03-21T09:04:36;6.57;;;3.60;;
47749;SDS011;49810;48.160;10.812;2023-03-21T09:07:05;6.47;;;3.70;;
47749;SDS011;49810;48.160;10.812;2023-03-21T09:09:33;7.80;;;4.68;;
47749;SDS011;49810;48.160;10.812;2023-03-21T09:12:00;6.05;;;3.55;;
47749;SDS011;49810;48.160;10.812;2023-03-21T09:14:28;6.07;;;3.97;;
47749;SDS011;49810;48.160;10.812;2023-03-21T09:16:58;7.90;;;4.32;;
47749;SDS011;49810;48.160;10.812;2023-03-21T09:19:26;6.18;;;3.83;;
47749;SDS011;49810;48.160;10.812;2023-03-21T09:21:55;5.50;;;3.72;;
47749;SDS011;49810;48.160;10.812;2023-03-21T09:24:26;6.93;;;3.45;;
47749;SDS011;49810;48.160;10.812;2023-03-21T09:26:54;6.80;;;3.97;;
47749;SDS011;49810;48.160;10.812;2023-03-21T09:29:22;6.40;;;3.50;;
47749;SDS011;49810;48.160;10.812;2023-03-21T09:31:51;4.70;;;3.17;;
47749;SDS011;49810;48.160;10.812;2023-03-21T09:34:22;7.25;;;3.90;;
47749;SDS011;49810;48.160;10.812;2023-03-21T09:36:50;7.65;;;3.97;;
47749;SDS011;49810;48.160;10.812;2023-03-21T09:39:23;6.70;;;4.13;;
47749;SDS011;49810;48.160;10.812;2023-03-21T09:41:56;8.90;;;4.55;;
47749;SDS011;49810;48.160;10.812;2023-03-21T09:44:34;7.32;;;4.50;;
47749;SDS011;49810;48.160;10.812;2023-03-21T09:47:10;8.00;;;4.60;;
47749;SDS011;49810;48.160;10.812;2023-03-21T09:49:44;8.00;;;4.75;;
47749;SDS011;49810;48.160;10.812;2023-03-21T09:52:15;7.20;;;4.50;;
47749;SDS011;49810;48.160;10.812;2023-03-21T09:54:44;10.63;;;4.82;;
47749;SDS011;49810;48.160;10.812;2023-03-21T09:57:14;13.02;;;4.82;;
47749;SDS011;49810;48.160;10.812;2023-03-21T09:59:45;7.25;;;4.30;;
47749;SDS011;49810;48.160;10.812;2023-03-21T10:02:19;7.45;;;5.10;;
47749;SDS011;49810;48.160;10.812;2023-03-21T10:04:49;10.13;;;5.07;;
47749;SDS011;49810;48.160;10.812;2023-03-21T10:07:18;8.82;;;4.90;;
47749;SDS011;49810;48.160;10.812;2023-03-21T10:09:46;8.90;;;5.20;;
47749;SDS011;49810;48.160;10.812;2023-03-21T10:12:16;5.72;;;4.30;;
47749;SDS011;49810;48.160;10.812;2023-03-21T10:14:47;7.28;;;4.95;;
47749;SDS011;49810;48.160;10.812;2023-03-21T10:17:18;7.13;;;4.15;;
47749;SDS011;49810;48.160;10.812;2023-03-21T10:19:49;7.70;;;4.60;;
47749;SDS011;49810;48.160;10.812;2023-03-21T10:22:22;9.30;;;4.53;;
47749;SDS011;49810;48.160;10.812;2023-03-21T10:24:50;5.45;;;4.10;;
47749;SDS011;49810;48.160;10.812;2023-03-21T10:27:18;6.85;;;4.78;;
47749;SDS011;49810;48.160;10.812;2023-03-21T10:29:46;11.60;;;4.65;;
47749;SDS011;49810;48.160;10.812;2023-03-21T10:32:18;6.53;;;4.70;;
47749;SDS011;49810;48.160;10.812;2023-03-21T10:34:49;7.45;;;3.85;;
47749;SDS011;49810;48.160;10.812;2023-03-21T10:37:21;8.00;;;4.00;;
47749;SDS011;49810;48.160;10.812;2023-03-21T10:39:50;6.75;;;3.60;;
47749;SDS011;49810;48.160;10.812;2023-03-21T10:42:20;5.88;;;3.75;;
47749;SDS011;49810;48.160;10.812;2023-03-21T10:44:51;6.82;;;4.13;;
47749;SDS011;49810;48.160;10.812;2023-03-21T10:47:19;8.10;;;5.25;;
47749;SDS011;49810;48.160;10.812;2023-03-21T10:49:49;8.40;;;5.47;;
47749;SDS011;49810;48.160;10.812;2023-03-21T10:52:37;8.90;;;6.55;;
47749;SDS011;49810;48.160;10.812;2023-03-21T10:55:16;7.38;;;5.25;;
47749;SDS011;49810;48.160;10.812;2023-03-21T10:57:44;6.90;;;4.68;;
47749;SDS011;49810;48.160;10.812;2023-03-21T11:00:16;5.85;;;4.28;;
47749;SDS011;49810;48.160;10.812;2023-03-21T11:02:47;7.67;;;5.30;;
47749;SDS011;49810;48.160;10.812;2023-03-21T11:05:18;6.97;;;5.45;;
47749;SDS011;49810;48.160;10.812;2023-03-21T11:07:46;9.98;;;6.10;;
47749;SDS011;49810;48.160;10.812;2023-03-21T11:10:15;8.00;;;5.50;;
47749;SDS011;49810;48.160;10.812;2023-03-21T11:12:55;8.10;;;5.18;;
47749;SDS011;49810;48.160;10.812;2023-03-21T11:15:27;7.72;;;5.15;;
47749;SDS011;49810;48.160;10.812;2023-03-21T11:17:56;7.30;;;5.30;;
47749;SDS011;49810;48.160;10.812;2023-03-21T11:20:25;7.18;;;5.30;;
47749;SDS011;49810;48.160;10.812;2023-03-21T11:22:54;8.15;;;5.53;;
47749;SDS011;49810;48.160;10.812;2023-03-21T11:25:24;7.05;;;5.43;;
47749;SDS011;49810;48.160;10.812;2023-03-21T11:27:54;8.43;;;5.78;;
47749;SDS011;49810;48.160;10.812;2023-03-21T11:30:23;8.23;;;6.10;;
47749;SDS011;49810;48.160;10.812;2023-03-21T11:32:52;8.05;;;5.70;;
47749;SDS011;49810;48.160;10.812;2023-03-21T11:35:22;7.00;;;5.32;;
47749;SDS011;49810;48.160;10.812;2023-03-21T11:37:52;8.68;;;5.85;;
47749;SDS011;49810;48.160;10.812;2023-03-21T11:40:21;9.32;;;5.85;;
47749;SDS011;49810;48.160;10.812;2023-03-21T11:42:51;9.25;;;6.10;;
47749;SDS011;49810;48.160;10.812;2023-03-21T11:45:20;7.55;;;5.78;;
47749;SDS011;49810;48.160;10.812;2023-03-21T11:47:48;8.52;;;6.00;;
47749;SDS011;49810;48.160;10.812;2023-03-21T11:50:19;6.47;;;5.20;;
47749;SDS011;49810;48.160;10.812;2023-03-21T11:52:52;9.30;;;6.20;;
47749;SDS011;49810;48.160;10.812;2023-03-21T11:55:25;8.00;;;5.30;;
47749;SDS011;49810;48.160;10.812;2023-03-21T11:57:59;8.93;;;6.25;;
47749;SDS011;49810;48.160;10.812;2023-03-21T12:00:41;9.23;;;6.28;;
47749;SDS011;49810;48.160;10.812;2023-03-21T12:06:16;9.50;;;6.53;;
47749;SDS011;49810;48.160;10.812;2023-03-21T12:08:50;9.10;;;6.00;;
47749;SDS011;49810;48.160;10.812;2023-03-21T12:11:23;8.68;;;5.93;;
47749;SDS011;49810;48.160;10.812;2023-03-21T12:13:57;8.63;;;5.40;;
47749;SDS011;49810;48.160;10.812;2023-03-21T12:16:33;8.55;;;5.68;;
47749;SDS011;49810;48.160;10.812;2023-03-21T12:19:28;6.90;;;5.55;;
47749;SDS011;49810;48.160;10.812;2023-03-21T12:22:00;7.38;;;5.82;;
47749;SDS011;49810;48.160;10.812;2023-03-21T12:24:35;6.75;;;5.18;;
47749;SDS011;49810;48.160;10.812;2023-03-21T12:27:10;7.43;;;5.40;;
47749;SDS011;49810;48.160;10.812;2023-03-21T12:29:54;7.57;;;6.03;;
47749;SDS011;49810;48.160;10.812;2023-03-21T12:32:35;7.68;;;5.53;;
47749;SDS011;49810;48.160;10.812;2023-03-21T12:35:19;7.13;;;5.18;;
47749;SDS011;49810;48.160;10.812;2023-03-21T12:40:25;9.35;;;6.03;;
47749;SDS011;49810;48.160;10.812;2023-03-21T12:43:11;6.88;;;5.13;;
47749;SDS011;49810;48.160;10.812;2023-03-21T12:45:44;7.53;;;5.38;;
47749;SDS011;49810;48.160;10.812;2023-03-21T12:48:16;7.07;;;5.38;;
47749;SDS011;49810;48.160;10.812;2023-03-21T12:50:47;7.10;;;5.60;;
47749;SDS011;49810;48.160;10.812;2023-03-21T12:53:29;6.72;;;5.60;;
47749;SDS011;49810;48.160;10.812;2023-03-21T12:56:04;10.05;;;6.55;;
47749;SDS011;49810;48.160;10.812;2023-03-21T12:58:35;11.35;;;6.22;;
47749;SDS011;49810;48.160;10.812;2023-03-21T13:01:03;6.47;;;4.90;;
47749;SDS011;49810;48.160;10.812;2023-03-21T13:03:32;8.43;;;5.32;;
47749;SDS011;49810;48.160;10.812;2023-03-21T13:06:07;7.03;;;5.70;;
47749;SDS011;49810;48.160;10.812;2023-03-21T13:08:37;6.47;;;5.30;;
47749;SDS011;49810;48.160;10.812;2023-03-21T13:11:09;7.03;;;5.38;;
47749;SDS011;49810;48.160;10.812;2023-03-21T13:13:41;9.23;;;5.25;;
47749;SDS011;49810;48.160;10.812;2023-03-21T13:16:10;6.00;;;4.80;;
47749;SDS011;49810;48.160;10.812;2023-03-21T13:18:48;7.40;;;4.88;;
47749;SDS011;49810;48.160;10.812;2023-03-21T13:21:21;13.13;;;10.25;;
47749;SDS011;49810;48.160;10.812;2023-03-21T13:23:55;9.45;;;6.18;;
47749;SDS011;49810;48.160;10.812;2023-03-21T13:26:32;8.25;;;6.10;;
47749;SDS011;49810;48.160;10.812;2023-03-21T13:29:10;6.75;;;5.10;;
47749;SDS011;49810;48.160;10.812;2023-03-21T13:31:43;7.18;;;4.93;;
47749;SDS011;49810;48.160;10.812;2023-03-21T13:34:19;7.22;;;4.95;;
47749;SDS011;49810;48.160;10.812;2023-03-21T13:36:50;7.65;;;5.05;;
47749;SDS011;49810;48.160;10.812;2023-03-21T13:39:19;6.07;;;4.30;;
47749;SDS011;49810;48.160;10.812;2023-03-21T13:41:48;7.57;;;4.88;;
47749;SDS011;49810;48.160;10.812;2023-03-21T13:44:24;6.07;;;4.32;;
47749;SDS011;49810;48.160;10.812;2023-03-21T13:46:54;8.05;;;4.75;;
47749;SDS011;49810;48.160;10.812;2023-03-21T13:49:27;6.40;;;4.75;;
47749;SDS011;49810;48.160;10.812;2023-03-21T13:51:55;7.60;;;5.18;;
47749;SDS011;49810;48.160;10.812;2023-03-21T13:54:30;8.25;;;5.30;;
47749;SDS011;49810;48.160;10.812;2023-03-21T13:57:19;8.73;;;5.10;;
47749;SDS011;49810;48.160;10.812;2023-03-21T13:59:47;9.15;;;6.50;;
47749;SDS011;49810;48.160;10.812;2023-03-21T14:02:22;8.45;;;5.65;;
47749;SDS011;49810;48.160;10.812;2023-03-21T14:04:55;6.72;;;5.45;;
47749;SDS011;49810;48.160;10.812;2023-03-21T14:07:32;6.80;;;5.00;;
47749;SDS011;49810;48.160;10.812;2023-03-21T14:10:04;6.70;;;5.32;;
47749;SDS011;49810;48.160;10.812;2023-03-21T14:12:39;6.38;;;4.72;;
47749;SDS011;49810;48.160;10.812;2023-03-21T14:15:11;9.85;;;5.75;;
47749;SDS011;49810;48.160;10.812;2023-03-21T14:17:53;8.20;;;5.22;;
47749;SDS011;49810;48.160;10.812;2023-03-21T14:20:22;7.63;;;5.13;;
47749;SDS011;49810;48.160;10.812;2023-03-21T14:25:24;7.05;;;5.20;;
47749;SDS011;49810;48.160;10.812;2023-03-21T14:28:03;7.30;;;5.60;;
47749;SDS011;49810;48.160;10.812;2023-03-21T14:30:33;6.13;;;4.97;;
47749;SDS011;49810;48.160;10.812;2023-03-21T14:33:04;5.72;;;4.95;;
47749;SDS011;49810;48.160;10.812;2023-03-21T14:35:37;6.43;;;4.40;;
47749;SDS011;49810;48.160;10.812;2023-03-21T14:38:16;9.15;;;4.72;;
47749;SDS011;49810;48.160;10.812;2023-03-21T14:40:46;7.05;;;5.10;;
47749;SDS011;49810;48.160;10.812;2023-03-21T14:43:16;6.55;;;5.25;;
47749;SDS011;49810;48.160;10.812;2023-03-21T14:45:45;7.10;;;5.00;;
47749;SDS011;49810;48.160;10.812;2023-03-21T14:48:14;7.20;;;5.60;;
47749;SDS011;49810;48.160;10.812;2023-03-21T14:50:44;7.63;;;5.78;;
47749;SDS011;49810;48.160;10.812;2023-03-21T14:53:14;9.98;;;5.30;;
47749;SDS011;49810;48.160;10.812;2023-03-21T14:55:45;9.30;;;5.35;;
47749;SDS011;49810;48.160;10.812;2023-03-21T14:58:13;6.15;;;5.03;;
47749;SDS011;49810;48.160;10.812;2023-03-21T15:00:45;6.80;;;5.60;;
47749;SDS011;49810;48.160;10.812;2023-03-21T15:03:14;7.70;;;5.30;;
47749;SDS011;49810;48.160;10.812;2023-03-21T15:05:48;6.20;;;5.10;;
47749;SDS011;49810;48.160;10.812;2023-03-21T15:08:18;8.07;;;6.03;;